Disclaimer

Please do not use the information listed here in-flight or in-navigation, as they are not provided to us by the airports but are provided by volunteers, so they might be outdated.

Search


Regions


Airport information page

Radio informations:
POITIERS TWR - 118.5 MHz
POITERS INFO - 120.775 MHz
Automatic Terminal Information Service (ATIS) - 121.775 MHz
POITIERS APP - 130.9 MHz

Airport informations:
Latitude: 46° 35' 15.88" N
Longitude: 000° 18' 24.00" E
Elevation: 423 feet - 129 meters
Operating hours: Remarks
Operating agency: Civil government, landing fees and diplomatic clearance may be required
Timezone: UTC+1(+2DT) - Last Sunday in March to last Sunday in October
Fuel: Jet A1, without icing nhibitor.

100/130 MIL Spec, low lead, aviation gasoline (BLUE)

Runway information:
03/21 - 7710 x 148 feet< - >2350 x 45 meters

Recent METARs:
LFBI 160600Z AUTO 33003KT 0550 0450 R21/0800N FG VV/// 05/05 Q1022 TEMPO 0200
LFBI 160630Z AUTO 32002KT 0650 0600 R21/0800U FG VV/// 05/05 Q1022 BECMG 0500 FG
LFBI 160700Z AUTO 02002KT 0350 0300 R21/0400N -RA FG VV/// 05/05 Q1022 NOSIG

Airport on the map: